sensor_id;sensor_type;location;lat;lon;timestamp;temperature;humidity
19164;DHT22;9714;51.208;4.242;2023-03-21T00:01:19;11.80;99.90
19164;DHT22;9714;51.208;4.242;2023-03-21T00:03:49;11.50;99.90
19164;DHT22;9714;51.208;4.242;2023-03-21T00:06:19;11.50;99.90
19164;DHT22;9714;51.208;4.242;2023-03-21T00:08:49;11.60;99.90
19164;DHT22;9714;51.208;4.242;2023-03-21T00:11:16;11.60;99.90
19164;DHT22;9714;51.208;4.242;2023-03-21T00:13:44;11.60;99.90
19164;DHT22;9714;51.208;4.242;2023-03-21T00:16:18;11.60;99.90
19164;DHT22;9714;51.208;4.242;2023-03-21T00:18:48;11.70;99.90
19164;DHT22;9714;51.208;4.242;2023-03-21T00:21:28;11.70;99.90
19164;DHT22;9714;51.208;4.242;2023-03-21T00:24:07;11.50;99.90
19164;DHT22;9714;51.208;4.242;2023-03-21T00:26:44;11.30;99.90
19164;DHT22;9714;51.208;4.242;2023-03-21T00:29:17;11.20;99.90
19164;DHT22;9714;51.208;4.242;2023-03-21T00:31:48;11.20;99.90
19164;DHT22;9714;51.208;4.242;2023-03-21T00:34:16;11.20;99.90
19164;DHT22;9714;51.208;4.242;2023-03-21T00:36:47;11.30;99.90
19164;DHT22;9714;51.208;4.242;2023-03-21T00:39:19;11.40;99.90
19164;DHT22;9714;51.208;4.242;2023-03-21T00:41:50;11.40;99.90
19164;DHT22;9714;51.208;4.242;2023-03-21T00:44:26;11.40;99.90
19164;DHT22;9714;51.208;4.242;2023-03-21T00:46:53;11.40;99.90
19164;DHT22;9714;51.208;4.242;2023-03-21T00:49:35;11.40;99.90
19164;DHT22;9714;51.208;4.242;2023-03-21T00:52:15;11.30;99.90
19164;DHT22;9714;51.208;4.242;2023-03-21T00:54:50;11.10;99.90
19164;DHT22;9714;51.208;4.242;2023-03-21T00:57:18;10.90;99.90
19164;DHT22;9714;51.208;4.242;2023-03-21T00:59:45;10.80;99.90
19164;DHT22;9714;51.208;4.242;2023-03-21T01:02:14;10.60;99.90
19164;DHT22;9714;51.208;4.242;2023-03-21T01:04:47;10.60;99.90
19164;DHT22;9714;51.208;4.242;2023-03-21T01:07:16;10.60;99.90
19164;DHT22;9714;51.208;4.242;2023-03-21T01:09:45;10.60;99.90
19164;DHT22;9714;51.208;4.242;2023-03-21T01:12:18;10.50;99.90
19164;DHT22;9714;51.208;4.242;2023-03-21T01:14:47;10.50;99.90
19164;DHT22;9714;51.208;4.242;2023-03-21T01:17:15;10.50;99.90
19164;DHT22;9714;51.208;4.242;2023-03-21T01:19:42;10.50;99.90
19164;DHT22;9714;51.208;4.242;2023-03-21T01:22:12;10.60;99.90
19164;DHT22;9714;51.208;4.242;2023-03-21T01:24:39;10.60;99.90
19164;DHT22;9714;51.208;4.242;2023-03-21T01:27:06;10.60;99.90
19164;DHT22;9714;51.208;4.242;2023-03-21T01:29:35;10.60;99.90
19164;DHT22;9714;51.208;4.242;2023-03-21T01:32:04;10.60;99.90
19164;DHT22;9714;51.208;4.242;2023-03-21T01:34:31;10.80;99.90
19164;DHT22;9714;51.208;4.242;2023-03-21T01:36:58;10.60;99.90
19164;DHT22;9714;51.208;4.242;2023-03-21T01:39:27;10.80;99.90
19164;DHT22;9714;51.208;4.242;2023-03-21T01:41:54;10.70;99.90
19164;DHT22;9714;51.208;4.242;2023-03-21T01:44:21;10.70;99.90
19164;DHT22;9714;51.208;4.242;2023-03-21T01:46:50;10.70;99.90
19164;DHT22;9714;51.208;4.242;2023-03-21T01:49:24;10.80;99.90
19164;DHT22;9714;51.208;4.242;2023-03-21T01:51:54;10.80;99.90
19164;DHT22;9714;51.208;4.242;2023-03-21T01:54:23;10.80;99.90
19164;DHT22;9714;51.208;4.242;2023-03-21T01:56:57;10.80;99.90
19164;DHT22;9714;51.208;4.242;2023-03-21T01:59:32;10.70;99.90
19164;DHT22;9714;51.208;4.242;2023-03-21T02:02:04;10.50;99.90
19164;DHT22;9714;51.208;4.242;2023-03-21T02:04:37;10.70;99.90
19164;DHT22;9714;51.208;4.242;2023-03-21T02:07:07;10.70;99.90
19164;DHT22;9714;51.208;4.242;2023-03-21T02:09:36;10.70;99.90
19164;DHT22;9714;51.208;4.242;2023-03-21T02:12:05;10.70;99.90
19164;DHT22;9714;51.208;4.242;2023-03-21T02:14:35;10.70;99.90
19164;DHT22;9714;51.208;4.242;2023-03-21T02:17:11;10.60;99.90
19164;DHT22;9714;51.208;4.242;2023-03-21T02:20:09;10.50;99.90
19164;DHT22;9714;51.208;4.242;2023-03-21T02:23:05;10.40;99.90
19164;DHT22;9714;51.208;4.242;2023-03-21T02:25:56;10.40;99.90
19164;DHT22;9714;51.208;4.242;2023-03-21T02:28:35;10.40;99.90
19164;DHT22;9714;51.208;4.242;2023-03-21T02:31:34;10.50;99.90
19164;DHT22;9714;51.208;4.242;2023-03-21T02:37:23;10.80;99.90
19164;DHT22;9714;51.208;4.242;2023-03-21T02:40:02;11.00;99.90
19164;DHT22;9714;51.208;4.242;2023-03-21T02:42:43;11.00;99.90
19164;DHT22;9714;51.208;4.242;2023-03-21T02:45:17;11.00;99.90
19164;DHT22;9714;51.208;4.242;2023-03-21T02:47:47;11.00;99.90
19164;DHT22;9714;51.208;4.242;2023-03-21T02:50:20;10.90;99.90
19164;DHT22;9714;51.208;4.242;2023-03-21T02:52:50;10.80;99.90
19164;DHT22;9714;51.208;4.242;2023-03-21T02:58:18;10.70;99.90
19164;DHT22;9714;51.208;4.242;2023-03-21T03:01:03;10.60;99.90
19164;DHT22;9714;51.208;4.242;2023-03-21T03:03:31;10.60;99.90
19164;DHT22;9714;51.208;4.242;2023-03-21T03:06:05;10.60;99.90
19164;DHT22;9714;51.208;4.242;2023-03-21T03:09:00;10.60;99.90
19164;DHT22;9714;51.208;4.242;2023-03-21T03:12:06;10.70;99.90
19164;DHT22;9714;51.208;4.242;2023-03-21T03:14:51;10.80;99.90
19164;DHT22;9714;51.208;4.242;2023-03-21T03:17:34;10.70;99.90
19164;DHT22;9714;51.208;4.242;2023-03-21T03:20:31;10.70;99.90
19164;DHT22;9714;51.208;4.242;2023-03-21T03:23:20;10.60;99.90
19164;DHT22;9714;51.208;4.242;2023-03-21T03:26:07;10.60;99.90
19164;DHT22;9714;51.208;4.242;2023-03-21T03:28:41;10.70;99.90
19164;DHT22;9714;51.208;4.242;2023-03-21T03:31:13;10.70;99.90
19164;DHT22;9714;51.208;4.242;2023-03-21T03:34:14;10.80;99.90
19164;DHT22;9714;51.208;4.242;2023-03-21T03:40:12;11.20;99.90
19164;DHT22;9714;51.208;4.242;2023-03-21T03:42:50;11.20;99.90
19164;DHT22;9714;51.208;4.242;2023-03-21T03:45:23;11.30;99.90
19164;DHT22;9714;51.208;4.242;2023-03-21T03:47:56;11.40;99.90
19164;DHT22;9714;51.208;4.242;2023-03-21T03:50:29;11.40;99.90
19164;DHT22;9714;51.208;4.242;2023-03-21T03:56:22;11.50;99.90
19164;DHT22;9714;51.208;4.242;2023-03-21T03:58:53;11.60;99.90
19164;DHT22;9714;51.208;4.242;2023-03-21T04:01:22;11.40;99.90
19164;DHT22;9714;51.208;4.242;2023-03-21T04:03:53;11.60;99.90
19164;DHT22;9714;51.208;4.242;2023-03-21T04:06:21;11.50;99.90
19164;DHT22;9714;51.208;4.242;2023-03-21T04:08:49;11.60;99.90
19164;DHT22;9714;51.208;4.242;2023-03-21T04:11:18;11.70;99.90
19164;DHT22;9714;51.208;4.242;2023-03-21T04:14:11;11.40;99.90
19164;DHT22;9714;51.208;4.242;2023-03-21T04:16:48;11.50;99.90
19164;DHT22;9714;51.208;4.242;2023-03-21T04:19:21;11.40;99.90
19164;DHT22;9714;51.208;4.242;2023-03-21T04:22:06;11.40;99.90
19164;DHT22;9714;51.208;4.242;2023-03-21T04:24:37;11.60;99.90
19164;DHT22;9714;51.208;4.242;2023-03-21T04:27:08;11.50;99.90
19164;DHT22;9714;51.208;4.242;2023-03-21T04:29:45;11.40;99.90
19164;DHT22;9714;51.208;4.242;2023-03-21T04:35:34;11.60;99.90
19164;DHT22;9714;51.208;4.242;2023-03-21T04:38:03;11.60;99.90
19164;DHT22;9714;51.208;4.242;2023-03-21T04:40:32;11.60;99.90
19164;DHT22;9714;51.208;4.242;2023-03-21T04:43:02;11.50;99.90
19164;DHT22;9714;51.208;4.242;2023-03-21T04:45:35;11.60;99.90
19164;DHT22;9714;51.208;4.242;2023-03-21T04:48:07;11.70;99.90
19164;DHT22;9714;51.208;4.242;2023-03-21T04:50:36;11.90;99.90
19164;DHT22;9714;51.208;4.242;2023-03-21T04:53:04;11.80;99.90
19164;DHT22;9714;51.208;4.242;2023-03-21T04:55:41;11.80;99.90
19164;DHT22;9714;51.208;4.242;2023-03-21T04:58:17;11.90;99.90
19164;DHT22;9714;51.208;4.242;2023-03-21T05:01:08;11.90;99.90
19164;DHT22;9714;51.208;4.242;2023-03-21T05:03:50;12.10;99.90
19164;DHT22;9714;51.208;4.242;2023-03-21T05:06:19;12.30;99.90
19164;DHT22;9714;51.208;4.242;2023-03-21T05:08:46;12.10;99.90
19164;DHT22;9714;51.208;4.242;2023-03-21T05:11:14;12.20;99.90
19164;DHT22;9714;51.208;4.242;2023-03-21T05:13:41;12.10;99.90
19164;DHT22;9714;51.208;4.242;2023-03-21T05:16:12;12.20;99.90
19164;DHT22;9714;51.208;4.242;2023-03-21T05:18:41;12.20;99.90
19164;DHT22;9714;51.208;4.242;2023-03-21T05:21:12;12.30;99.90
19164;DHT22;9714;51.208;4.242;2023-03-21T05:23:44;11.80;99.90
19164;DHT22;9714;51.208;4.242;2023-03-21T05:26:21;12.00;99.90
19164;DHT22;9714;51.208;4.242;2023-03-21T05:28:50;11.90;99.90
19164;DHT22;9714;51.208;4.242;2023-03-21T05:31:21;11.80;99.90
19164;DHT22;9714;51.208;4.242;2023-03-21T05:33:51;11.70;99.90
19164;DHT22;9714;51.208;4.242;2023-03-21T05:36:18;11.60;99.90
19164;DHT22;9714;51.208;4.242;2023-03-21T05:38:57;11.80;99.90
19164;DHT22;9714;51.208;4.242;2023-03-21T05:41:38;11.90;99.90
19164;DHT22;9714;51.208;4.242;2023-03-21T05:44:43;11.70;99.90
19164;DHT22;9714;51.208;4.242;2023-03-21T05:47:12;11.70;99.90
19164;DHT22;9714;51.208;4.242;2023-03-21T05:49:40;11.80;99.90
19164;DHT22;9714;51.208;4.242;2023-03-21T05:52:11;11.80;99.90
19164;DHT22;9714;51.208;4.242;2023-03-21T05:54:50;11.70;99.90
19164;DHT22;9714;51.208;4.242;2023-03-21T05:57:21;11.70;99.90
19164;DHT22;9714;51.208;4.242;2023-03-21T05:59:58;11.70;99.90
19164;DHT22;9714;51.208;4.242;2023-03-21T06:02:28;11.80;99.90
19164;DHT22;9714;51.208;4.242;2023-03-21T06:04:56;11.60;99.90
19164;DHT22;9714;51.208;4.242;2023-03-21T06:07:23;11.70;99.90
19164;DHT22;9714;51.208;4.242;2023-03-21T06:09:51;11.60;99.90
19164;DHT22;9714;51.208;4.242;2023-03-21T06:12:20;11.50;99.90
19164;DHT22;9714;51.208;4.242;2023-03-21T06:14:47;11.50;99.90
19164;DHT22;9714;51.208;4.242;2023-03-21T06:17:15;11.50;99.90
19164;DHT22;9714;51.208;4.242;2023-03-21T06:19:44;11.60;99.90
19164;DHT22;9714;51.208;4.242;2023-03-21T06:22:31;11.70;99.90
19164;DHT22;9714;51.208;4.242;2023-03-21T06:25:02;11.90;99.90
19164;DHT22;9714;51.208;4.242;2023-03-21T06:27:30;11.70;99.90
19164;DHT22;9714;51.208;4.242;2023-03-21T06:29:59;11.70;99.90
19164;DHT22;9714;51.208;4.242;2023-03-21T06:32:26;11.50;99.90
19164;DHT22;9714;51.208;4.242;2023-03-21T06:34:54;11.60;99.90
19164;DHT22;9714;51.208;4.242;2023-03-21T06:37:22;11.60;99.90
19164;DHT22;9714;51.208;4.242;2023-03-21T06:39:51;11.50;99.90
19164;DHT22;9714;51.208;4.242;2023-03-21T06:42:24;11.30;99.90
19164;DHT22;9714;51.208;4.242;2023-03-21T06:44:52;11.20;99.90
19164;DHT22;9714;51.208;4.242;2023-03-21T06:47:19;11.20;99.90
19164;DHT22;9714;51.208;4.242;2023-03-21T06:49:46;11.20;99.90
19164;DHT22;9714;51.208;4.242;2023-03-21T06:52:16;11.20;99.90
19164;DHT22;9714;51.208;4.242;2023-03-21T06:54:44;11.20;99.90
19164;DHT22;9714;51.208;4.242;2023-03-21T06:57:17;11.20;99.90
19164;DHT22;9714;51.208;4.242;2023-03-21T06:59:47;11.20;99.90
19164;DHT22;9714;51.208;4.242;2023-03-21T07:02:14;11.10;99.90
19164;DHT22;9714;51.208;4.242;2023-03-21T07:04:42;10.90;99.90
19164;DHT22;9714;51.208;4.242;2023-03-21T07:07:10;10.70;99.90
19164;DHT22;9714;51.208;4.242;2023-03-21T07:09:40;10.60;99.90
19164;DHT22;9714;51.208;4.242;2023-03-21T07:12:08;10.80;99.90
19164;DHT22;9714;51.208;4.242;2023-03-21T07:14:38;10.80;99.90
19164;DHT22;9714;51.208;4.242;2023-03-21T07:17:07;10.70;99.90
19164;DHT22;9714;51.208;4.242;2023-03-21T07:19:36;10.80;99.90
19164;DHT22;9714;51.208;4.242;2023-03-21T07:22:03;10.90;99.90
19164;DHT22;9714;51.208;4.242;2023-03-21T07:24:31;10.90;99.90
19164;DHT22;9714;51.208;4.242;2023-03-21T07:26:59;11.00;99.90
19164;DHT22;9714;51.208;4.242;2023-03-21T07:29:26;11.20;99.90
19164;DHT22;9714;51.208;4.242;2023-03-21T07:31:53;11.10;99.90
19164;DHT22;9714;51.208;4.242;2023-03-21T07:34:20;11.20;99.90
19164;DHT22;9714;51.208;4.242;2023-03-21T07:36:47;11.20;99.90
19164;DHT22;9714;51.208;4.242;2023-03-21T07:39:14;11.20;99.90
19164;DHT22;9714;51.208;4.242;2023-03-21T07:41:42;11.10;99.90
19164;DHT22;9714;51.208;4.242;2023-03-21T07:44:10;11.20;99.90
19164;DHT22;9714;51.208;4.242;2023-03-21T07:46:37;11.40;99.90
19164;DHT22;9714;51.208;4.242;2023-03-21T07:49:05;11.40;99.90
19164;DHT22;9714;51.208;4.242;2023-03-21T07:51:34;11.40;99.90
19164;DHT22;9714;51.208;4.242;2023-03-21T07:54:02;11.50;99.90
19164;DHT22;9714;51.208;4.242;2023-03-21T07:56:29;11.60;99.90
19164;DHT22;9714;51.208;4.242;2023-03-21T07:58:56;11.40;99.90
19164;DHT22;9714;51.208;4.242;2023-03-21T08:01:25;11.50;99.90
19164;DHT22;9714;51.208;4.242;2023-03-21T08:03:52;11.50;99.90
19164;DHT22;9714;51.208;4.242;2023-03-21T08:06:22;11.80;99.90
19164;DHT22;9714;51.208;4.242;2023-03-21T08:08:49;11.80;99.90
19164;DHT22;9714;51.208;4.242;2023-03-21T08:11:17;12.10;99.90
19164;DHT22;9714;51.208;4.242;2023-03-21T08:13:46;12.20;99.90
19164;DHT22;9714;51.208;4.242;2023-03-21T08:16:15;12.20;99.90
19164;DHT22;9714;51.208;4.242;2023-03-21T08:18:43;12.40;99.90
19164;DHT22;9714;51.208;4.242;2023-03-21T08:21:10;12.40;99.90
19164;DHT22;9714;51.208;4.242;2023-03-21T08:23:37;12.40;99.90
19164;DHT22;9714;51.208;4.242;2023-03-21T08:26:05;12.60;99.90
19164;DHT22;9714;51.208;4.242;2023-03-21T08:28:32;12.70;99.90
19164;DHT22;9714;51.208;4.242;2023-03-21T08:30:59;12.60;99.90
19164;DHT22;9714;51.208;4.242;2023-03-21T08:33:26;12.50;99.90
19164;DHT22;9714;51.208;4.242;2023-03-21T08:35:58;12.70;99.90
19164;DHT22;9714;51.208;4.242;2023-03-21T08:38:25;12.70;99.90
19164;DHT22;9714;51.208;4.242;2023-03-21T08:40:54;12.60;99.90
19164;DHT22;9714;51.208;4.242;2023-03-21T08:43:21;13.00;99.90
19164;DHT22;9714;51.208;4.242;2023-03-21T08:45:48;13.20;99.90
19164;DHT22;9714;51.208;4.242;2023-03-21T08:48:15;13.40;99.90
19164;DHT22;9714;51.208;4.242;2023-03-21T08:50:42;13.40;99.90
19164;DHT22;9714;51.208;4.242;2023-03-21T08:53:11;13.60;99.90
19164;DHT22;9714;51.208;4.242;2023-03-21T08:55:38;13.60;99.90
19164;DHT22;9714;51.208;4.242;2023-03-21T08:58:06;14.10;99.90
19164;DHT22;9714;51.208;4.242;2023-03-21T09:00:33;14.50;99.90
19164;DHT22;9714;51.208;4.242;2023-03-21T09:03:00;14.80;99.90
19164;DHT22;9714;51.208;4.242;2023-03-21T09:05:30;14.90;99.90
19164;DHT22;9714;51.208;4.242;2023-03-21T09:07:58;15.20;99.90
19164;DHT22;9714;51.208;4.242;2023-03-21T09:10:27;14.70;99.90
19164;DHT22;9714;51.208;4.242;2023-03-21T09:12:55;14.60;99.90
19164;DHT22;9714;51.208;4.242;2023-03-21T09:15:24;14.70;99.90
19164;DHT22;9714;51.208;4.242;2023-03-21T09:17:53;14.60;99.90
19164;DHT22;9714;51.208;4.242;2023-03-21T09:20:25;14.70;99.90
19164;DHT22;9714;51.208;4.242;2023-03-21T09:22:55;14.70;99.90
19164;DHT22;9714;51.208;4.242;2023-03-21T09:25:22;14.60;99.90
19164;DHT22;9714;51.208;4.242;2023-03-21T09:27:51;14.40;99.90
19164;DHT22;9714;51.208;4.242;2023-03-21T09:30:19;14.30;99.90
19164;DHT22;9714;51.208;4.242;2023-03-21T09:32:48;14.30;99.90
19164;DHT22;9714;51.208;4.242;2023-03-21T09:35:21;14.40;99.90
19164;DHT22;9714;51.208;4.242;2023-03-21T09:37:49;14.20;99.90
19164;DHT22;9714;51.208;4.242;2023-03-21T09:40:20;14.20;99.90
19164;DHT22;9714;51.208;4.242;2023-03-21T09:42:57;14.30;99.90
19164;DHT22;9714;51.208;4.242;2023-03-21T09:45:33;14.20;99.90
19164;DHT22;9714;51.208;4.242;2023-03-21T09:48:16;14.40;99.90
19164;DHT22;9714;51.208;4.242;2023-03-21T09:50:56;14.20;99.90
19164;DHT22;9714;51.208;4.242;2023-03-21T09:53:27;14.30;99.90
19164;DHT22;9714;51.208;4.242;2023-03-21T09:55:57;14.70;99.90
19164;DHT22;9714;51.208;4.242;2023-03-21T09:58:29;14.80;99.90
19164;DHT22;9714;51.208;4.242;2023-03-21T10:01:03;14.80;99.90
19164;DHT22;9714;51.208;4.242;2023-03-21T10:03:33;14.40;99.90
19164;DHT22;9714;51.208;4.242;2023-03-21T10:06:09;14.70;99.90
19164;DHT22;9714;51.208;4.242;2023-03-21T10:08:40;14.80;99.90
19164;DHT22;9714;51.208;4.242;2023-03-21T10:11:16;14.80;99.90
19164;DHT22;9714;51.208;4.242;2023-03-21T10:13:52;14.80;99.90
19164;DHT22;9714;51.208;4.242;2023-03-21T10:16:26;14.60;99.90
19164;DHT22;9714;51.208;4.242;2023-03-21T10:18:55;14.80;99.90
19164;DHT22;9714;51.208;4.242;2023-03-21T10:21:24;14.80;99.90
19164;DHT22;9714;51.208;4.242;2023-03-21T10:23:54;15.00;99.90
19164;DHT22;9714;51.208;4.242;2023-03-21T10:26:29;15.30;99.90
19164;DHT22;9714;51.208;4.242;2023-03-21T10:29:00;15.00;99.90
19164;DHT22;9714;51.208;4.242;2023-03-21T10:31:31;15.00;99.90
19164;DHT22;9714;51.208;4.242;2023-03-21T10:34:12;15.00;99.90
19164;DHT22;9714;51.208;4.242;2023-03-21T10:36:41;14.90;99.90
19164;DHT22;9714;51.208;4.242;2023-03-21T10:39:17;14.60;99.90
19164;DHT22;9714;51.208;4.242;2023-03-21T10:41:47;14.70;99.90
19164;DHT22;9714;51.208;4.242;2023-03-21T10:44:17;14.80;99.90
19164;DHT22;9714;51.208;4.242;2023-03-21T10:46:51;14.70;99.90
19164;DHT22;9714;51.208;4.242;2023-03-21T10:49:25;14.50;99.90
19164;DHT22;9714;51.208;4.242;2023-03-21T10:52:02;14.50;99.90
19164;DHT22;9714;51.208;4.242;2023-03-21T10:54:32;14.30;99.90
19164;DHT22;9714;51.208;4.242;2023-03-21T10:57:03;14.30;99.90
19164;DHT22;9714;51.208;4.242;2023-03-21T10:59:38;14.40;99.90
19164;DHT22;9714;51.208;4.242;2023-03-21T11:02:15;14.40;99.90
19164;DHT22;9714;51.208;4.242;2023-03-21T11:04:44;14.30;99.90
19164;DHT22;9714;51.208;4.242;2023-03-21T11:07:13;14.20;99.90
19164;DHT22;9714;51.208;4.242;2023-03-21T11:09:46;14.30;99.90
19164;DHT22;9714;51.208;4.242;2023-03-21T11:12:27;14.50;99.90
19164;DHT22;9714;51.208;4.242;2023-03-21T11:14:56;14.50;99.90
19164;DHT22;9714;51.208;4.242;2023-03-21T11:17:28;14.70;99.90
19164;DHT22;9714;51.208;4.242;2023-03-21T11:19:58;14.50;99.90
19164;DHT22;9714;51.208;4.242;2023-03-21T11:22:29;14.50;99.90
19164;DHT22;9714;51.208;4.242;2023-03-21T11:25:05;14.50;99.90
19164;DHT22;9714;51.208;4.242;2023-03-21T11:27:34;15.00;99.90
19164;DHT22;9714;51.208;4.242;2023-03-21T11:30:03;16.10;99.90
19164;DHT22;9714;51.208;4.242;2023-03-21T11:32:39;17.20;99.90
19164;DHT22;9714;51.208;4.242;2023-03-21T11:35:15;18.30;99.90
19164;DHT22;9714;51.208;4.242;2023-03-21T11:37:49;19.00;99.90
19164;DHT22;9714;51.208;4.242;2023-03-21T11:40:29;19.70;99.90
19164;DHT22;9714;51.208;4.242;2023-03-21T11:43:05;20.40;99.90
19164;DHT22;9714;51.208;4.242;2023-03-21T11:45:57;20.30;99.90
19164;DHT22;9714;51.208;4.242;2023-03-21T11:48:25;21.60;99.90
19164;DHT22;9714;51.208;4.242;2023-03-21T11:50:58;21.80;99.90
19164;DHT22;9714;51.208;4.242;2023-03-21T11:53:36;21.80;99.90
19164;DHT22;9714;51.208;4.242;2023-03-21T11:56:19;21.20;99.90
19164;DHT22;9714;51.208;4.242;2023-03-21T11:59:04;19.90;99.90
19164;DHT22;9714;51.208;4.242;2023-03-21T12:01:40;18.80;99.90
19164;DHT22;9714;51.208;4.242;2023-03-21T12:04:38;18.30;99.90
19164;DHT22;9714;51.208;4.242;2023-03-21T12:07:15;18.20;99.90
19164;DHT22;9714;51.208;4.242;2023-03-21T12:09:59;18.20;99.90
19164;DHT22;9714;51.208;4.242;2023-03-21T12:12:41;17.80;99.90
19164;DHT22;9714;51.208;4.242;2023-03-21T12:15:18;17.70;99.90
19164;DHT22;9714;51.208;4.242;2023-03-21T12:17:55;17.40;99.90
19164;DHT22;9714;51.208;4.242;2023-03-21T12:20:39;17.30;99.90
19164;DHT22;9714;51.208;4.242;2023-03-21T12:26:21;17.50;99.90
19164;DHT22;9714;51.208;4.242;2023-03-21T12:29:21;16.90;99.90
19164;DHT22;9714;51.208;4.242;2023-03-21T12:32:03;16.60;99.90
19164;DHT22;9714;51.208;4.242;2023-03-21T12:35:02;16.30;99.90
19164;DHT22;9714;51.208;4.242;2023-03-21T12:37:42;16.30;99.90
19164;DHT22;9714;51.208;4.242;2023-03-21T12:43:46;16.60;99.90
19164;DHT22;9714;51.208;4.242;2023-03-21T12:46:33;17.40;99.90
19164;DHT22;9714;51.208;4.242;2023-03-21T12:49:25;17.90;99.90
19164;DHT22;9714;51.208;4.242;2023-03-21T12:52:00;17.60;99.90
19164;DHT22;9714;51.208;4.242;2023-03-21T12:54:35;17.60;99.90
19164;DHT22;9714;51.208;4.242;2023-03-21T12:57:11;17.20;99.90
19164;DHT22;9714;51.208;4.242;2023-03-21T12:59:49;16.90;99.90
19164;DHT22;9714;51.208;4.242;2023-03-21T13:02:29;16.70;99.90
19164;DHT22;9714;51.208;4.242;2023-03-21T13:05:03;16.20;99.90
19164;DHT22;9714;51.208;4.242;2023-03-21T13:07:39;16.10;99.90
19164;DHT22;9714;51.208;4.242;2023-03-21T13:10:19;16.20;99.90
19164;DHT22;9714;51.208;4.242;2023-03-21T13:13:07;15.90;99.90
19164;DHT22;9714;51.208;4.242;2023-03-21T13:15:56;16.00;99.90
19164;DHT22;9714;51.208;4.242;2023-03-21T13:18:37;15.90;99.90
19164;DHT22;9714;51.208;4.242;2023-03-21T13:21:11;15.80;99.90
19164;DHT22;9714;51.208;4.242;2023-03-21T13:23:57;15.70;99.90
19164;DHT22;9714;51.208;4.242;2023-03-21T13:26:37;15.70;99.90
19164;DHT22;9714;51.208;4.242;2023-03-21T13:29:23;15.70;99.90
19164;DHT22;9714;51.208;4.242;2023-03-21T13:31:53;15.90;99.90
19164;DHT22;9714;51.208;4.242;2023-03-21T13:34:22;15.80;99.90
19164;DHT22;9714;51.208;4.242;2023-03-21T13:36:51;15.80;99.90
19164;DHT22;9714;51.208;4.242;2023-03-21T13:39:24;16.10;99.90
19164;DHT22;9714;51.208;4.242;2023-03-21T13:41:53;15.90;99.90
19164;DHT22;9714;51.208;4.242;2023-03-21T13:44:24;15.80;99.90
19164;DHT22;9714;51.208;4.242;2023-03-21T13:47:00;15.90;99.90
19164;DHT22;9714;51.208;4.242;2023-03-21T13:49:31;15.90;99.90
19164;DHT22;9714;51.208;4.242;2023-03-21T13:55:26;16.00;99.90
19164;DHT22;9714;51.208;4.242;2023-03-21T13:58:22;15.50;99.90
19164;DHT22;9714;51.208;4.242;2023-03-21T14:01:25;15.60;99.90
19164;DHT22;9714;51.208;4.242;2023-03-21T14:04:11;15.80;99.90
19164;DHT22;9714;51.208;4.242;2023-03-21T14:06:45;15.50;99.90
19164;DHT22;9714;51.208;4.242;2023-03-21T14:09:19;15.50;99.90
19164;DHT22;9714;51.208;4.242;2023-03-21T14:11:47;15.50;99.90
19164;DHT22;9714;51.208;4.242;2023-03-21T14:14:20;15.50;99.90
19164;DHT22;9714;51.208;4.242;2023-03-21T14:16:55;15.30;99.90
19164;DHT22;9714;51.208;4.242;2023-03-21T14:19:28;15.00;99.90
19164;DHT22;9714;51.208;4.242;2023-03-21T14:21:59;14.70;99.90
19164;DHT22;9714;51.208;4.242;2023-03-21T14:24:32;14.80;99.90
19164;DHT22;9714;51.208;4.242;2023-03-21T14:27:02;14.60;99.90
19164;DHT22;9714;51.208;4.242;2023-03-21T14:29:33;14.50;99.90
19164;DHT22;9714;51.208;4.242;2023-03-21T14:32:03;14.50;99.90
19164;DHT22;9714;51.208;4.242;2023-03-21T14:34:34;14.60;99.90
19164;DHT22;9714;51.208;4.242;2023-03-21T14:37:06;14.70;99.90
19164;DHT22;9714;51.208;4.242;2023-03-21T14:39:35;14.70;99.90
19164;DHT22;9714;51.208;4.242;2023-03-21T14:42:14;15.00;99.90
19164;DHT22;9714;51.208;4.242;2023-03-21T14:48:11;15.20;99.90
19164;DHT22;9714;51.208;4.242;2023-03-21T14:51:09;15.20;99.90
19164;DHT22;9714;51.208;4.242;2023-03-21T14:53:46;15.10;99.90
19164;DHT22;9714;51.208;4.242;2023-03-21T14:56:19;14.70;99.90
19164;DHT22;9714;51.208;4.242;2023-03-21T14:58:53;14.60;99.90
19164;DHT22;9714;51.208;4.242;2023-03-21T15:01:27;14.40;99.90
19164;DHT22;9714;51.208;4.242;2023-03-21T15:04:04;14.50;99.90
19164;DHT22;9714;51.208;4.242;2023-03-21T15:06:32;14.60;99.90
19164;DHT22;9714;51.208;4.242;2023-03-21T15:09:02;14.50;99.90
19164;DHT22;9714;51.208;4.242;2023-03-21T15:11:30;14.40;99.90
19164;DHT22;9714;51.208;4.242;2023-03-21T15:14:05;14.40;99.90
19164;DHT22;9714;51.208;4.242;2023-03-21T15:16:39;14.30;99.90
19164;DHT22;9714;51.208;4.242;2023-03-21T15:19:10;14.40;99.90
19164;DHT22;9714;51.208;4.242;2023-03-21T15:21:42;14.50;99.90
19164;DHT22;9714;51.208;4.242;2023-03-21T15:24:15;14.50;99.90
19164;DHT22;9714;51.208;4.242;2023-03-21T15:26:58;14.50;99.90
19164;DHT22;9714;51.208;4.242;2023-03-21T15:29:27;14.40;99.90
19164;DHT22;9714;51.208;4.242;2023-03-21T15:31:55;14.20;99.90
19164;DHT22;9714;51.208;4.242;2023-03-21T15:34:27;14.40;99.90
19164;DHT22;9714;51.208;4.242;2023-03-21T15:36:55;14.60;99.90
19164;DHT22;9714;51.208;4.242;2023-03-21T15:39:26;14.60;99.90
19164;DHT22;9714;51.208;4.242;2023-03-21T15:41:58;14.60;99.90
19164;DHT22;9714;51.208;4.242;2023-03-21T15:44:46;14.70;99.90
19164;DHT22;9714;51.208;4.242;2023-03-21T15:47:40;14.80;99.90
19164;DHT22;9714;51.208;4.242;2023-03-21T15:50:17;14.60;99.90
19164;DHT22;9714;51.208;4.242;2023-03-21T15:52:48;14.60;99.90
19164;DHT22;9714;51.208;4.242;2023-03-21T15:55:21;14.50;99.90
19164;DHT22;9714;51.208;4.242;2023-03-21T15:57:51;14.60;99.90
19164;DHT22;9714;51.208;4.242;2023-03-21T16:00:22;14.70;99.90
19164;DHT22;9714;51.208;4.242;2023-03-21T16:02:55;14.70;99.90
19164;DHT22;9714;51.208;4.242;2023-03-21T16:05:28;14.50;99.90
19164;DHT22;9714;51.208;4.242;2023-03-21T16:08:16;14.80;99.90
19164;DHT22;9714;51.208;4.242;2023-03-21T16:10:44;14.70;99.90
19164;DHT22;9714;51.208;4.242;2023-03-21T16:13:14;14.70;99.90
19164;DHT22;9714;51.208;4.242;2023-03-21T16:15:46;14.80;99.90
19164;DHT22;9714;51.208;4.242;2023-03-21T16:18:13;14.60;99.90
19164;DHT22;9714;51.208;4.242;2023-03-21T16:20:45;14.50;99.90
19164;DHT22;9714;51.208;4.242;2023-03-21T16:23:19;14.60;99.90
19164;DHT22;9714;51.208;4.242;2023-03-21T16:25:47;14.60;99.90
19164;DHT22;9714;51.208;4.242;2023-03-21T16:28:23;14.70;99.90
19164;DHT22;9714;51.208;4.242;2023-03-21T16:30:51;14.90;99.90
19164;DHT22;9714;51.208;4.242;2023-03-21T16:33:17;14.90;99.90
19164;DHT22;9714;51.208;4.242;2023-03-21T16:35:52;15.10;99.90
19164;DHT22;9714;51.208;4.242;2023-03-21T16:38:27;15.00;99.90
19164;DHT22;9714;51.208;4.242;2023-03-21T16:40:55;14.90;99.90
19164;DHT22;9714;51.208;4.242;2023-03-21T16:43:29;15.00;99.90
19164;DHT22;9714;51.208;4.242;2023-03-21T16:45:57;14.90;99.90
19164;DHT22;9714;51.208;4.242;2023-03-21T16:48:24;15.10;99.90
19164;DHT22;9714;51.208;4.242;2023-03-21T16:50:54;15.00;99.90
19164;DHT22;9714;51.208;4.242;2023-03-21T16:53:21;15.00;99.90